sensor_id;sensor_type;location;lat;lon;timestamp;P1;durP1;ratioP1;P2;durP2;ratioP2
3293;SDS011;1659;51.470;6.770;2024-02-26T00:00:45;4.37;;;3.67;;
3293;SDS011;1659;51.470;6.770;2024-02-26T00:03:12;4.07;;;3.70;;
3293;SDS011;1659;51.470;6.770;2024-02-26T00:05:39;4.30;;;3.87;;
3293;SDS011;1659;51.470;6.770;2024-02-26T00:08:05;5.70;;;3.80;;
3293;SDS011;1659;51.470;6.770;2024-02-26T00:10:32;7.23;;;3.73;;
3293;SDS011;1659;51.470;6.770;2024-02-26T00:12:59;4.03;;;3.73;;
3293;SDS011;1659;51.470;6.770;2024-02-26T00:15:25;3.70;;;3.40;;
3293;SDS011;1659;51.470;6.770;2024-02-26T00:17:54;4.43;;;4.03;;
3293;SDS011;1659;51.470;6.770;2024-02-26T00:20:20;6.47;;;3.60;;
3293;SDS011;1659;51.470;6.770;2024-02-26T00:22:47;6.00;;;3.53;;
3293;SDS011;1659;51.470;6.770;2024-02-26T00:25:14;4.07;;;3.67;;
3293;SDS011;1659;51.470;6.770;2024-02-26T00:27:40;4.47;;;3.80;;
3293;SDS011;1659;51.470;6.770;2024-02-26T00:30:09;6.00;;;3.30;;
3293;SDS011;1659;51.470;6.770;2024-02-26T00:32:37;6.80;;;3.97;;
3293;SDS011;1659;51.470;6.770;2024-02-26T00:35:05;4.93;;;4.20;;
3293;SDS011;1659;51.470;6.770;2024-02-26T00:37:34;6.83;;;4.30;;
3293;SDS011;1659;51.470;6.770;2024-02-26T00:40:01;5.23;;;3.60;;
3293;SDS011;1659;51.470;6.770;2024-02-26T00:42:27;4.77;;;3.30;;
3293;SDS011;1659;51.470;6.770;2024-02-26T00:44:54;3.90;;;3.57;;
3293;SDS011;1659;51.470;6.770;2024-02-26T00:47:21;4.70;;;3.97;;
3293;SDS011;1659;51.470;6.770;2024-02-26T00:49:47;7.70;;;3.93;;
3293;SDS011;1659;51.470;6.770;2024-02-26T00:52:15;5.00;;;3.80;;
3293;SDS011;1659;51.470;6.770;2024-02-26T00:54:42;6.80;;;4.00;;
3293;SDS011;1659;51.470;6.770;2024-02-26T00:57:08;10.80;;;4.30;;
3293;SDS011;1659;51.470;6.770;2024-02-26T00:59:35;4.57;;;3.83;;
3293;SDS011;1659;51.470;6.770;2024-02-26T01:02:01;5.60;;;4.00;;
3293;SDS011;1659;51.470;6.770;2024-02-26T01:04:30;4.17;;;3.60;;
3293;SDS011;1659;51.470;6.770;2024-02-26T01:06:57;4.00;;;3.57;;
3293;SDS011;1659;51.470;6.770;2024-02-26T01:09:25;4.47;;;3.60;;
3293;SDS011;1659;51.470;6.770;2024-02-26T01:11:51;4.87;;;3.10;;
3293;SDS011;1659;51.470;6.770;2024-02-26T01:14:18;4.73;;;3.30;;
3293;SDS011;1659;51.470;6.770;2024-02-26T01:16:44;3.50;;;3.20;;
3293;SDS011;1659;51.470;6.770;2024-02-26T01:19:11;4.27;;;3.60;;
3293;SDS011;1659;51.470;6.770;2024-02-26T01:21:38;4.00;;;3.10;;
3293;SDS011;1659;51.470;6.770;2024-02-26T01:24:05;2.70;;;2.50;;
3293;SDS011;1659;51.470;6.770;2024-02-26T01:26:33;6.10;;;3.60;;
3293;SDS011;1659;51.470;6.770;2024-02-26T01:28:59;4.83;;;4.00;;
3293;SDS011;1659;51.470;6.770;2024-02-26T01:31:26;3.80;;;3.10;;
3293;SDS011;1659;51.470;6.770;2024-02-26T01:33:53;3.13;;;2.93;;
3293;SDS011;1659;51.470;6.770;2024-02-26T01:36:19;4.33;;;3.43;;
3293;SDS011;1659;51.470;6.770;2024-02-26T01:38:46;3.40;;;3.10;;
3293;SDS011;1659;51.470;6.770;2024-02-26T01:41:13;6.77;;;3.50;;
3293;SDS011;1659;51.470;6.770;2024-02-26T01:43:41;5.00;;;4.13;;
3293;SDS011;1659;51.470;6.770;2024-02-26T01:46:08;7.73;;;4.00;;
3293;SDS011;1659;51.470;6.770;2024-02-26T01:48:40;4.03;;;3.63;;
3293;SDS011;1659;51.470;6.770;2024-02-26T01:51:06;6.30;;;3.80;;
3293;SDS011;1659;51.470;6.770;2024-02-26T01:53:33;4.23;;;3.80;;
3293;SDS011;1659;51.470;6.770;2024-02-26T01:56:00;5.10;;;3.83;;
3293;SDS011;1659;51.470;6.770;2024-02-26T01:58:28;8.27;;;4.30;;
3293;SDS011;1659;51.470;6.770;2024-02-26T02:00:57;5.87;;;3.93;;
3293;SDS011;1659;51.470;6.770;2024-02-26T02:03:24;3.90;;;3.47;;
3293;SDS011;1659;51.470;6.770;2024-02-26T02:05:51;3.90;;;3.60;;
3293;SDS011;1659;51.470;6.770;2024-02-26T02:08:18;4.67;;;4.27;;
3293;SDS011;1659;51.470;6.770;2024-02-26T02:10:44;6.30;;;4.63;;
3293;SDS011;1659;51.470;6.770;2024-02-26T02:13:12;4.70;;;3.90;;
3293;SDS011;1659;51.470;6.770;2024-02-26T02:15:39;6.20;;;4.43;;
3293;SDS011;1659;51.470;6.770;2024-02-26T02:18:07;4.50;;;4.10;;
3293;SDS011;1659;51.470;6.770;2024-02-26T02:20:35;6.13;;;4.90;;
3293;SDS011;1659;51.470;6.770;2024-02-26T02:23:02;5.10;;;4.50;;
3293;SDS011;1659;51.470;6.770;2024-02-26T02:25:29;5.20;;;4.67;;
3293;SDS011;1659;51.470;6.770;2024-02-26T02:27:56;5.67;;;4.10;;
3293;SDS011;1659;51.470;6.770;2024-02-26T02:30:23;5.87;;;4.10;;
3293;SDS011;1659;51.470;6.770;2024-02-26T02:32:52;4.93;;;4.43;;
3293;SDS011;1659;51.470;6.770;2024-02-26T02:35:19;7.70;;;4.33;;
3293;SDS011;1659;51.470;6.770;2024-02-26T02:37:47;5.07;;;4.10;;
3293;SDS011;1659;51.470;6.770;2024-02-26T02:40:14;6.77;;;4.30;;
3293;SDS011;1659;51.470;6.770;2024-02-26T02:42:41;9.17;;;4.23;;
3293;SDS011;1659;51.470;6.770;2024-02-26T02:45:07;5.83;;;4.80;;
3293;SDS011;1659;51.470;6.770;2024-02-26T02:47:35;5.00;;;4.47;;
3293;SDS011;1659;51.470;6.770;2024-02-26T02:50:02;5.00;;;4.50;;
3293;SDS011;1659;51.470;6.770;2024-02-26T02:52:30;5.23;;;4.30;;
3293;SDS011;1659;51.470;6.770;2024-02-26T02:54:58;6.43;;;4.90;;
3293;SDS011;1659;51.470;6.770;2024-02-26T02:57:24;8.87;;;4.33;;
3293;SDS011;1659;51.470;6.770;2024-02-26T02:59:51;5.50;;;4.57;;
3293;SDS011;1659;51.470;6.770;2024-02-26T03:02:18;5.00;;;4.07;;
3293;SDS011;1659;51.470;6.770;2024-02-26T03:04:44;6.70;;;4.60;;
3293;SDS011;1659;51.470;6.770;2024-02-26T03:07:11;9.63;;;4.57;;
3293;SDS011;1659;51.470;6.770;2024-02-26T03:09:38;9.90;;;4.33;;
3293;SDS011;1659;51.470;6.770;2024-02-26T03:12:06;6.27;;;4.87;;
3293;SDS011;1659;51.470;6.770;2024-02-26T03:14:32;8.90;;;4.23;;
3293;SDS011;1659;51.470;6.770;2024-02-26T03:16:59;4.17;;;3.80;;
3293;SDS011;1659;51.470;6.770;2024-02-26T03:19:25;4.97;;;4.57;;
3293;SDS011;1659;51.470;6.770;2024-02-26T03:21:52;4.90;;;4.50;;
3293;SDS011;1659;51.470;6.770;2024-02-26T03:24:18;6.40;;;4.83;;
3293;SDS011;1659;51.470;6.770;2024-02-26T03:26:45;7.83;;;3.90;;
3293;SDS011;1659;51.470;6.770;2024-02-26T03:29:13;7.03;;;4.77;;
3293;SDS011;1659;51.470;6.770;2024-02-26T03:31:39;5.00;;;3.80;;
3293;SDS011;1659;51.470;6.770;2024-02-26T03:34:06;4.83;;;4.10;;
3293;SDS011;1659;51.470;6.770;2024-02-26T03:36:32;5.77;;;4.80;;
3293;SDS011;1659;51.470;6.770;2024-02-26T03:38:59;4.53;;;4.23;;
3293;SDS011;1659;51.470;6.770;2024-02-26T03:41:27;4.43;;;4.00;;
3293;SDS011;1659;51.470;6.770;2024-02-26T03:43:54;5.20;;;4.50;;
3293;SDS011;1659;51.470;6.770;2024-02-26T03:46:21;5.97;;;4.20;;
3293;SDS011;1659;51.470;6.770;2024-02-26T03:48:48;4.97;;;3.73;;
3293;SDS011;1659;51.470;6.770;2024-02-26T03:51:14;5.03;;;4.50;;
3293;SDS011;1659;51.470;6.770;2024-02-26T03:53:41;4.60;;;4.17;;
3293;SDS011;1659;51.470;6.770;2024-02-26T03:56:07;9.60;;;4.50;;
3293;SDS011;1659;51.470;6.770;2024-02-26T03:58:34;3.97;;;3.67;;
3293;SDS011;1659;51.470;6.770;2024-02-26T04:01:00;4.77;;;3.97;;
3293;SDS011;1659;51.470;6.770;2024-02-26T04:03:28;7.33;;;4.20;;
3293;SDS011;1659;51.470;6.770;2024-02-26T04:05:55;9.10;;;5.07;;
3293;SDS011;1659;51.470;6.770;2024-02-26T04:08:21;5.87;;;4.37;;
3293;SDS011;1659;51.470;6.770;2024-02-26T04:10:48;6.07;;;5.07;;
3293;SDS011;1659;51.470;6.770;2024-02-26T04:13:15;7.80;;;5.43;;
3293;SDS011;1659;51.470;6.770;2024-02-26T04:15:43;4.57;;;4.17;;
3293;SDS011;1659;51.470;6.770;2024-02-26T04:18:11;5.90;;;4.07;;
3293;SDS011;1659;51.470;6.770;2024-02-26T04:20:39;4.80;;;4.40;;
3293;SDS011;1659;51.470;6.770;2024-02-26T04:23:07;5.27;;;4.33;;
3293;SDS011;1659;51.470;6.770;2024-02-26T04:25:33;4.50;;;4.10;;
3293;SDS011;1659;51.470;6.770;2024-02-26T04:28:00;8.43;;;5.27;;
3293;SDS011;1659;51.470;6.770;2024-02-26T04:30:26;4.83;;;4.10;;
3293;SDS011;1659;51.470;6.770;2024-02-26T04:32:53;5.50;;;5.00;;
3293;SDS011;1659;51.470;6.770;2024-02-26T04:35:19;4.90;;;4.40;;
3293;SDS011;1659;51.470;6.770;2024-02-26T04:37:47;6.63;;;4.47;;
3293;SDS011;1659;51.470;6.770;2024-02-26T04:40:14;5.17;;;4.43;;
3293;SDS011;1659;51.470;6.770;2024-02-26T04:42:40;5.37;;;3.80;;
3293;SDS011;1659;51.470;6.770;2024-02-26T04:45:07;4.10;;;3.77;;
3293;SDS011;1659;51.470;6.770;2024-02-26T04:47:34;4.60;;;4.20;;
3293;SDS011;1659;51.470;6.770;2024-02-26T04:50:01;5.77;;;4.70;;
3293;SDS011;1659;51.470;6.770;2024-02-26T04:52:28;5.53;;;4.40;;
3293;SDS011;1659;51.470;6.770;2024-02-26T04:54:55;5.13;;;4.27;;
3293;SDS011;1659;51.470;6.770;2024-02-26T04:57:22;5.70;;;4.27;;
3293;SDS011;1659;51.470;6.770;2024-02-26T04:59:48;5.20;;;4.70;;
3293;SDS011;1659;51.470;6.770;2024-02-26T05:02:15;4.83;;;4.40;;
3293;SDS011;1659;51.470;6.770;2024-02-26T05:04:41;6.27;;;4.50;;
3293;SDS011;1659;51.470;6.770;2024-02-26T05:07:08;4.77;;;4.30;;
3293;SDS011;1659;51.470;6.770;2024-02-26T05:09:35;6.07;;;4.60;;
3293;SDS011;1659;51.470;6.770;2024-02-26T05:12:03;4.53;;;4.13;;
3293;SDS011;1659;51.470;6.770;2024-02-26T05:14:30;5.13;;;3.80;;
3293;SDS011;1659;51.470;6.770;2024-02-26T05:16:57;4.60;;;4.20;;
3293;SDS011;1659;51.470;6.770;2024-02-26T05:19:23;4.53;;;4.13;;
3293;SDS011;1659;51.470;6.770;2024-02-26T05:21:50;5.40;;;4.90;;
3293;SDS011;1659;51.470;6.770;2024-02-26T05:24:16;4.83;;;4.43;;
3293;SDS011;1659;51.470;6.770;2024-02-26T05:26:43;6.13;;;4.80;;
3293;SDS011;1659;51.470;6.770;2024-02-26T05:29:13;6.37;;;4.90;;
3293;SDS011;1659;51.470;6.770;2024-02-26T05:31:41;6.40;;;4.43;;
3293;SDS011;1659;51.470;6.770;2024-02-26T05:34:08;4.80;;;4.23;;
3293;SDS011;1659;51.470;6.770;2024-02-26T05:36:35;4.47;;;4.07;;
3293;SDS011;1659;51.470;6.770;2024-02-26T05:39:01;6.00;;;4.87;;
3293;SDS011;1659;51.470;6.770;2024-02-26T05:41:28;8.43;;;4.40;;
3293;SDS011;1659;51.470;6.770;2024-02-26T05:43:55;6.00;;;4.57;;
3293;SDS011;1659;51.470;6.770;2024-02-26T05:46:23;5.37;;;4.70;;
3293;SDS011;1659;51.470;6.770;2024-02-26T05:48:51;6.17;;;4.53;;
3293;SDS011;1659;51.470;6.770;2024-02-26T05:51:18;6.20;;;4.30;;
3293;SDS011;1659;51.470;6.770;2024-02-26T05:53:44;7.33;;;5.00;;
3293;SDS011;1659;51.470;6.770;2024-02-26T05:56:11;5.67;;;4.87;;
3293;SDS011;1659;51.470;6.770;2024-02-26T05:58:38;5.53;;;5.03;;
3293;SDS011;1659;51.470;6.770;2024-02-26T06:01:05;8.00;;;5.00;;
3293;SDS011;1659;51.470;6.770;2024-02-26T06:03:33;6.43;;;5.33;;
3293;SDS011;1659;51.470;6.770;2024-02-26T06:05:59;7.37;;;4.93;;
3293;SDS011;1659;51.470;6.770;2024-02-26T06:08:26;7.23;;;5.13;;
3293;SDS011;1659;51.470;6.770;2024-02-26T06:10:52;6.97;;;5.20;;
3293;SDS011;1659;51.470;6.770;2024-02-26T06:13:19;7.90;;;5.53;;
3293;SDS011;1659;51.470;6.770;2024-02-26T06:15:46;4.97;;;4.43;;
3293;SDS011;1659;51.470;6.770;2024-02-26T06:18:12;8.33;;;5.20;;
3293;SDS011;1659;51.470;6.770;2024-02-26T06:20:41;6.40;;;4.87;;
3293;SDS011;1659;51.470;6.770;2024-02-26T06:23:07;7.30;;;5.40;;
3293;SDS011;1659;51.470;6.770;2024-02-26T06:25:35;4.87;;;4.47;;
3293;SDS011;1659;51.470;6.770;2024-02-26T06:28:01;8.93;;;5.40;;
3293;SDS011;1659;51.470;6.770;2024-02-26T06:30:28;7.53;;;5.13;;
3293;SDS011;1659;51.470;6.770;2024-02-26T06:32:54;10.83;;;6.77;;
3293;SDS011;1659;51.470;6.770;2024-02-26T06:35:21;5.67;;;4.80;;
3293;SDS011;1659;51.470;6.770;2024-02-26T06:37:49;6.73;;;4.73;;
3293;SDS011;1659;51.470;6.770;2024-02-26T06:40:17;6.43;;;5.73;;
3293;SDS011;1659;51.470;6.770;2024-02-26T06:42:44;5.03;;;4.37;;
3293;SDS011;1659;51.470;6.770;2024-02-26T06:45:14;9.07;;;4.37;;
3293;SDS011;1659;51.470;6.770;2024-02-26T06:47:40;6.43;;;5.23;;
3293;SDS011;1659;51.470;6.770;2024-02-26T06:50:08;5.10;;;4.70;;
3293;SDS011;1659;51.470;6.770;2024-02-26T06:52:35;7.23;;;5.93;;
3293;SDS011;1659;51.470;6.770;2024-02-26T06:55:03;7.37;;;5.27;;
3293;SDS011;1659;51.470;6.770;2024-02-26T06:57:32;7.37;;;4.97;;
3293;SDS011;1659;51.470;6.770;2024-02-26T06:59:59;6.67;;;4.87;;
3293;SDS011;1659;51.470;6.770;2024-02-26T07:02:25;7.00;;;5.07;;
3293;SDS011;1659;51.470;6.770;2024-02-26T07:04:52;5.83;;;4.57;;
3293;SDS011;1659;51.470;6.770;2024-02-26T07:07:19;6.60;;;5.17;;
3293;SDS011;1659;51.470;6.770;2024-02-26T07:09:47;6.30;;;4.97;;
3293;SDS011;1659;51.470;6.770;2024-02-26T07:12:15;7.43;;;5.13;;
3293;SDS011;1659;51.470;6.770;2024-02-26T07:14:42;9.43;;;5.33;;
3293;SDS011;1659;51.470;6.770;2024-02-26T07:17:09;9.50;;;5.23;;
3293;SDS011;1659;51.470;6.770;2024-02-26T07:19:35;6.07;;;5.43;;
3293;SDS011;1659;51.470;6.770;2024-02-26T07:22:02;5.83;;;5.07;;
3293;SDS011;1659;51.470;6.770;2024-02-26T07:24:28;9.43;;;6.27;;
3293;SDS011;1659;51.470;6.770;2024-02-26T07:26:55;5.50;;;4.97;;
3293;SDS011;1659;51.470;6.770;2024-02-26T07:29:23;14.80;;;6.10;;
3293;SDS011;1659;51.470;6.770;2024-02-26T07:31:49;11.07;;;6.73;;
3293;SDS011;1659;51.470;6.770;2024-02-26T07:34:16;10.70;;;7.03;;
3293;SDS011;1659;51.470;6.770;2024-02-26T07:36:43;8.20;;;6.07;;
3293;SDS011;1659;51.470;6.770;2024-02-26T07:39:09;11.93;;;5.70;;
3293;SDS011;1659;51.470;6.770;2024-02-26T07:41:36;10.57;;;6.10;;
3293;SDS011;1659;51.470;6.770;2024-02-26T07:44:04;10.77;;;6.00;;
3293;SDS011;1659;51.470;6.770;2024-02-26T07:46:31;8.13;;;6.83;;
3293;SDS011;1659;51.470;6.770;2024-02-26T07:48:58;8.63;;;5.67;;
3293;SDS011;1659;51.470;6.770;2024-02-26T07:51:25;5.83;;;5.23;;
3293;SDS011;1659;51.470;6.770;2024-02-26T07:53:51;8.83;;;5.83;;
3293;SDS011;1659;51.470;6.770;2024-02-26T07:56:18;7.17;;;5.23;;
3293;SDS011;1659;51.470;6.770;2024-02-26T07:58:44;8.87;;;6.00;;
3293;SDS011;1659;51.470;6.770;2024-02-26T08:01:12;11.33;;;5.97;;
3293;SDS011;1659;51.470;6.770;2024-02-26T08:03:40;6.77;;;5.53;;
3293;SDS011;1659;51.470;6.770;2024-02-26T08:06:07;10.47;;;5.70;;
3293;SDS011;1659;51.470;6.770;2024-02-26T08:08:34;7.40;;;6.20;;
3293;SDS011;1659;51.470;6.770;2024-02-26T08:11:01;9.47;;;5.70;;
3293;SDS011;1659;51.470;6.770;2024-02-26T08:13:27;8.20;;;5.73;;
3293;SDS011;1659;51.470;6.770;2024-02-26T08:15:54;10.97;;;5.97;;
3293;SDS011;1659;51.470;6.770;2024-02-26T08:18:21;6.47;;;5.10;;
3293;SDS011;1659;51.470;6.770;2024-02-26T08:20:49;5.93;;;5.00;;
3293;SDS011;1659;51.470;6.770;2024-02-26T08:23:15;7.20;;;5.10;;
3293;SDS011;1659;51.470;6.770;2024-02-26T08:25:42;8.00;;;5.10;;
3293;SDS011;1659;51.470;6.770;2024-02-26T08:28:08;5.80;;;5.13;;
3293;SDS011;1659;51.470;6.770;2024-02-26T08:30:38;7.97;;;5.40;;
3293;SDS011;1659;51.470;6.770;2024-02-26T08:33:04;4.87;;;4.40;;
3293;SDS011;1659;51.470;6.770;2024-02-26T08:35:31;5.77;;;5.17;;
3293;SDS011;1659;51.470;6.770;2024-02-26T08:37:59;6.70;;;5.53;;
3293;SDS011;1659;51.470;6.770;2024-02-26T08:40:26;9.20;;;4.63;;
3293;SDS011;1659;51.470;6.770;2024-02-26T08:42:52;8.60;;;5.27;;
3293;SDS011;1659;51.470;6.770;2024-02-26T08:45:20;5.73;;;4.70;;
3293;SDS011;1659;51.470;6.770;2024-02-26T08:47:47;5.60;;;4.90;;
3293;SDS011;1659;51.470;6.770;2024-02-26T08:50:14;5.37;;;4.73;;
3293;SDS011;1659;51.470;6.770;2024-02-26T08:52:41;5.70;;;4.43;;
3293;SDS011;1659;51.470;6.770;2024-02-26T08:55:09;6.27;;;5.00;;
3293;SDS011;1659;51.470;6.770;2024-02-26T08:57:35;7.60;;;4.50;;
3293;SDS011;1659;51.470;6.770;2024-02-26T09:00:03;7.47;;;5.03;;
3293;SDS011;1659;51.470;6.770;2024-02-26T09:02:31;10.60;;;5.73;;
3293;SDS011;1659;51.470;6.770;2024-02-26T09:04:58;6.23;;;5.10;;
3293;SDS011;1659;51.470;6.770;2024-02-26T09:07:24;4.90;;;4.47;;
3293;SDS011;1659;51.470;6.770;2024-02-26T09:09:51;10.80;;;5.50;;
3293;SDS011;1659;51.470;6.770;2024-02-26T09:12:19;6.87;;;5.43;;
3293;SDS011;1659;51.470;6.770;2024-02-26T09:14:46;5.47;;;4.97;;
3293;SDS011;1659;51.470;6.770;2024-02-26T09:17:12;6.73;;;5.00;;
3293;SDS011;1659;51.470;6.770;2024-02-26T09:19:39;10.47;;;5.93;;
3293;SDS011;1659;51.470;6.770;2024-02-26T09:22:07;7.57;;;5.23;;
3293;SDS011;1659;51.470;6.770;2024-02-26T09:24:33;8.30;;;5.17;;
3293;SDS011;1659;51.470;6.770;2024-02-26T09:27:02;4.93;;;4.53;;
3293;SDS011;1659;51.470;6.770;2024-02-26T09:29:43;8.17;;;5.20;;
3293;SDS011;1659;51.470;6.770;2024-02-26T09:32:10;5.50;;;4.80;;
3293;SDS011;1659;51.470;6.770;2024-02-26T09:34:39;7.90;;;5.80;;
3293;SDS011;1659;51.470;6.770;2024-02-26T09:37:10;5.73;;;4.70;;
3293;SDS011;1659;51.470;6.770;2024-02-26T09:40:05;8.20;;;5.37;;
3293;SDS011;1659;51.470;6.770;2024-02-26T09:42:35;7.43;;;5.20;;
3293;SDS011;1659;51.470;6.770;2024-02-26T09:45:04;6.90;;;4.73;;
3293;SDS011;1659;51.470;6.770;2024-02-26T09:47:36;6.63;;;5.20;;
3293;SDS011;1659;51.470;6.770;2024-02-26T09:50:05;6.93;;;4.73;;
3293;SDS011;1659;51.470;6.770;2024-02-26T09:52:37;7.23;;;5.27;;
3293;SDS011;1659;51.470;6.770;2024-02-26T09:55:04;8.63;;;5.73;;
3293;SDS011;1659;51.470;6.770;2024-02-26T09:57:31;6.80;;;5.60;;
3293;SDS011;1659;51.470;6.770;2024-02-26T09:59:59;6.67;;;5.97;;
3293;SDS011;1659;51.470;6.770;2024-02-26T10:02:30;29.83;;;7.27;;
3293;SDS011;1659;51.470;6.770;2024-02-26T10:04:57;8.57;;;6.47;;
3293;SDS011;1659;51.470;6.770;2024-02-26T10:07:26;7.23;;;5.00;;
3293;SDS011;1659;51.470;6.770;2024-02-26T10:09:55;7.17;;;5.00;;
3293;SDS011;1659;51.470;6.770;2024-02-26T10:12:22;15.87;;;6.57;;
3293;SDS011;1659;51.470;6.770;2024-02-26T10:14:50;12.40;;;5.77;;
3293;SDS011;1659;51.470;6.770;2024-02-26T10:17:17;16.73;;;6.83;;
3293;SDS011;1659;51.470;6.770;2024-02-26T10:19:47;11.20;;;5.97;;
3293;SDS011;1659;51.470;6.770;2024-02-26T10:22:16;5.33;;;4.60;;
3293;SDS011;1659;51.470;6.770;2024-02-26T10:24:42;6.00;;;5.07;;
3293;SDS011;1659;51.470;6.770;2024-02-26T10:27:09;8.30;;;5.43;;
3293;SDS011;1659;51.470;6.770;2024-02-26T10:29:36;8.07;;;6.23;;
3293;SDS011;1659;51.470;6.770;2024-02-26T10:32:02;6.07;;;5.47;;
3293;SDS011;1659;51.470;6.770;2024-02-26T10:34:30;9.83;;;6.20;;
3293;SDS011;1659;51.470;6.770;2024-02-26T10:36:58;8.33;;;5.67;;
3293;SDS011;1659;51.470;6.770;2024-02-26T10:39:27;6.47;;;5.73;;
3293;SDS011;1659;51.470;6.770;2024-02-26T10:41:54;15.00;;;6.30;;
3293;SDS011;1659;51.470;6.770;2024-02-26T10:44:20;6.43;;;5.83;;
3293;SDS011;1659;51.470;6.770;2024-02-26T10:46:47;7.73;;;5.70;;
3293;SDS011;1659;51.470;6.770;2024-02-26T10:49:15;9.10;;;6.13;;
3293;SDS011;1659;51.470;6.770;2024-02-26T10:51:45;9.70;;;6.00;;
3293;SDS011;1659;51.470;6.770;2024-02-26T10:54:18;12.13;;;7.00;;
3293;SDS011;1659;51.470;6.770;2024-02-26T10:56:46;15.53;;;7.30;;
3293;SDS011;1659;51.470;6.770;2024-02-26T10:59:15;9.13;;;6.57;;
3293;SDS011;1659;51.470;6.770;2024-02-26T11:01:45;10.90;;;7.30;;
3293;SDS011;1659;51.470;6.770;2024-02-26T11:04:14;12.77;;;8.50;;
3293;SDS011;1659;51.470;6.770;2024-02-26T11:06:42;15.60;;;10.50;;
3293;SDS011;1659;51.470;6.770;2024-02-26T11:09:09;13.70;;;6.83;;
3293;SDS011;1659;51.470;6.770;2024-02-26T11:11:40;11.77;;;8.50;;
3293;SDS011;1659;51.470;6.770;2024-02-26T11:14:08;12.30;;;8.33;;
3293;SDS011;1659;51.470;6.770;2024-02-26T11:16:35;11.27;;;8.20;;
3293;SDS011;1659;51.470;6.770;2024-02-26T11:19:03;10.80;;;8.27;;
3293;SDS011;1659;51.470;6.770;2024-02-26T11:21:33;11.00;;;7.67;;
3293;SDS011;1659;51.470;6.770;2024-02-26T11:24:06;7.67;;;5.90;;
3293;SDS011;1659;51.470;6.770;2024-02-26T11:26:34;10.60;;;6.60;;
3293;SDS011;1659;51.470;6.770;2024-02-26T11:29:07;10.43;;;7.77;;
3293;SDS011;1659;51.470;6.770;2024-02-26T11:31:36;10.00;;;7.33;;
3293;SDS011;1659;51.470;6.770;2024-02-26T11:34:04;9.33;;;6.77;;
3293;SDS011;1659;51.470;6.770;2024-02-26T11:36:30;12.10;;;7.20;;
3293;SDS011;1659;51.470;6.770;2024-02-26T11:38:57;13.20;;;8.07;;
3293;SDS011;1659;51.470;6.770;2024-02-26T11:41:24;13.47;;;8.40;;
3293;SDS011;1659;51.470;6.770;2024-02-26T11:43:50;21.67;;;9.00;;
3293;SDS011;1659;51.470;6.770;2024-02-26T11:46:29;15.10;;;8.83;;
3293;SDS011;1659;51.470;6.770;2024-02-26T11:48:58;13.27;;;8.87;;
3293;SDS011;1659;51.470;6.770;2024-02-26T11:51:26;12.27;;;8.70;;
3293;SDS011;1659;51.470;6.770;2024-02-26T11:53:53;13.00;;;8.10;;
3293;SDS011;1659;51.470;6.770;2024-02-26T11:56:22;13.20;;;9.00;;
3293;SDS011;1659;51.470;6.770;2024-02-26T11:58:53;13.30;;;8.10;;
3293;SDS011;1659;51.470;6.770;2024-02-26T12:01:37;12.00;;;7.63;;
3293;SDS011;1659;51.470;6.770;2024-02-26T12:04:05;13.70;;;8.63;;
3293;SDS011;1659;51.470;6.770;2024-02-26T12:06:39;22.00;;;12.87;;
3293;SDS011;1659;51.470;6.770;2024-02-26T12:09:07;33.77;;;17.03;;
3293;SDS011;1659;51.470;6.770;2024-02-26T12:11:36;128.40;;;48.43;;
3293;SDS011;1659;51.470;6.770;2024-02-26T12:14:05;30.13;;;13.63;;
3293;SDS011;1659;51.470;6.770;2024-02-26T12:16:37;42.00;;;21.40;;
3293;SDS011;1659;51.470;6.770;2024-02-26T12:19:05;18.33;;;10.93;;
3293;SDS011;1659;51.470;6.770;2024-02-26T12:21:34;20.23;;;10.93;;
3293;SDS011;1659;51.470;6.770;2024-02-26T12:24:09;26.00;;;12.10;;
3293;SDS011;1659;51.470;6.770;2024-02-26T12:26:36;26.63;;;13.43;;
3293;SDS011;1659;51.470;6.770;2024-02-26T12:29:03;19.70;;;12.10;;
3293;SDS011;1659;51.470;6.770;2024-02-26T12:31:29;23.87;;;12.90;;
3293;SDS011;1659;51.470;6.770;2024-02-26T12:33:58;19.53;;;12.40;;
3293;SDS011;1659;51.470;6.770;2024-02-26T12:36:25;21.53;;;11.63;;
3293;SDS011;1659;51.470;6.770;2024-02-26T12:38:52;17.40;;;10.80;;
3293;SDS011;1659;51.470;6.770;2024-02-26T12:41:18;16.40;;;9.83;;
3293;SDS011;1659;51.470;6.770;2024-02-26T12:43:47;16.30;;;11.43;;
3293;SDS011;1659;51.470;6.770;2024-02-26T12:46:13;16.03;;;10.23;;
3293;SDS011;1659;51.470;6.770;2024-02-26T12:48:41;11.17;;;9.67;;
3293;SDS011;1659;51.470;6.770;2024-02-26T12:51:10;13.47;;;9.63;;
3293;SDS011;1659;51.470;6.770;2024-02-26T12:53:38;13.90;;;8.47;;
3293;SDS011;1659;51.470;6.770;2024-02-26T12:56:05;15.43;;;9.53;;
3293;SDS011;1659;51.470;6.770;2024-02-26T12:58:34;11.10;;;7.30;;
3293;SDS011;1659;51.470;6.770;2024-02-26T13:01:03;15.30;;;8.53;;
3293;SDS011;1659;51.470;6.770;2024-02-26T13:03:30;15.40;;;7.93;;
3293;SDS011;1659;51.470;6.770;2024-02-26T13:05:57;12.83;;;8.10;;
3293;SDS011;1659;51.470;6.770;2024-02-26T13:08:25;11.57;;;7.40;;
3293;SDS011;1659;51.470;6.770;2024-02-26T13:10:52;14.13;;;9.37;;
3293;SDS011;1659;51.470;6.770;2024-02-26T13:13:19;19.60;;;11.37;;
3293;SDS011;1659;51.470;6.770;2024-02-26T13:15:45;17.70;;;10.90;;
3293;SDS011;1659;51.470;6.770;2024-02-26T13:18:13;11.57;;;8.57;;
3293;SDS011;1659;51.470;6.770;2024-02-26T13:20:41;15.23;;;7.60;;
3293;SDS011;1659;51.470;6.770;2024-02-26T13:23:08;10.70;;;7.90;;
3293;SDS011;1659;51.470;6.770;2024-02-26T13:25:39;18.00;;;7.20;;
3293;SDS011;1659;51.470;6.770;2024-02-26T13:28:06;14.73;;;7.37;;
3293;SDS011;1659;51.470;6.770;2024-02-26T13:30:34;12.10;;;8.50;;
3293;SDS011;1659;51.470;6.770;2024-02-26T13:33:07;12.63;;;7.53;;
3293;SDS011;1659;51.470;6.770;2024-02-26T13:35:34;12.87;;;8.83;;
3293;SDS011;1659;51.470;6.770;2024-02-26T13:38:01;14.77;;;7.97;;
3293;SDS011;1659;51.470;6.770;2024-02-26T13:40:28;9.47;;;7.20;;
3293;SDS011;1659;51.470;6.770;2024-02-26T13:42:56;9.57;;;7.07;;
3293;SDS011;1659;51.470;6.770;2024-02-26T13:45:23;26.50;;;14.50;;
3293;SDS011;1659;51.470;6.770;2024-02-26T13:47:49;21.73;;;10.70;;
3293;SDS011;1659;51.470;6.770;2024-02-26T13:50:16;10.03;;;7.03;;
3293;SDS011;1659;51.470;6.770;2024-02-26T13:52:46;8.60;;;6.77;;
3293;SDS011;1659;51.470;6.770;2024-02-26T13:55:13;13.80;;;8.57;;
3293;SDS011;1659;51.470;6.770;2024-02-26T13:57:40;8.73;;;6.77;;
3293;SDS011;1659;51.470;6.770;2024-02-26T14:00:09;8.10;;;6.27;;
3293;SDS011;1659;51.470;6.770;2024-02-26T14:02:36;11.87;;;7.50;;
3293;SDS011;1659;51.470;6.770;2024-02-26T14:05:03;6.53;;;5.40;;
3293;SDS011;1659;51.470;6.770;2024-02-26T14:07:29;9.70;;;7.10;;
3293;SDS011;1659;51.470;6.770;2024-02-26T14:09:57;8.67;;;5.80;;
3293;SDS011;1659;51.470;6.770;2024-02-26T14:12:23;8.17;;;6.40;;
3293;SDS011;1659;51.470;6.770;2024-02-26T14:14:50;7.37;;;5.97;;
3293;SDS011;1659;51.470;6.770;2024-02-26T14:17:19;13.57;;;5.80;;
3293;SDS011;1659;51.470;6.770;2024-02-26T14:19:46;12.17;;;6.23;;
3293;SDS011;1659;51.470;6.770;2024-02-26T14:22:14;6.17;;;5.20;;
3293;SDS011;1659;51.470;6.770;2024-02-26T14:24:41;8.77;;;6.53;;
3293;SDS011;1659;51.470;6.770;2024-02-26T14:27:08;10.67;;;5.90;;
3293;SDS011;1659;51.470;6.770;2024-02-26T14:29:40;5.20;;;4.70;;
3293;SDS011;1659;51.470;6.770;2024-02-26T14:32:08;7.00;;;5.93;;
3293;SDS011;1659;51.470;6.770;2024-02-26T14:34:36;8.00;;;5.80;;
3293;SDS011;1659;51.470;6.770;2024-02-26T14:37:03;7.43;;;6.23;;
3293;SDS011;1659;51.470;6.770;2024-02-26T14:39:30;6.47;;;5.37;;
3293;SDS011;1659;51.470;6.770;2024-02-26T14:41:57;7.67;;;5.93;;
3293;SDS011;1659;51.470;6.770;2024-02-26T14:44:24;7.93;;;5.93;;
3293;SDS011;1659;51.470;6.770;2024-02-26T14:46:50;6.50;;;5.40;;
3293;SDS011;1659;51.470;6.770;2024-02-26T14:49:17;7.77;;;5.90;;
3293;SDS011;1659;51.470;6.770;2024-02-26T14:51:45;9.10;;;5.77;;
3293;SDS011;1659;51.470;6.770;2024-02-26T14:54:12;11.87;;;7.03;;
3293;SDS011;1659;51.470;6.770;2024-02-26T14:56:39;8.87;;;6.17;;
3293;SDS011;1659;51.470;6.770;2024-02-26T14:59:06;6.47;;;5.40;;
3293;SDS011;1659;51.470;6.770;2024-02-26T15:01:34;9.83;;;6.40;;
3293;SDS011;1659;51.470;6.770;2024-02-26T15:04:00;8.63;;;5.80;;
3293;SDS011;1659;51.470;6.770;2024-02-26T15:06:28;8.47;;;5.90;;
3293;SDS011;1659;51.470;6.770;2024-02-26T15:08:56;6.30;;;5.67;;
3293;SDS011;1659;51.470;6.770;2024-02-26T15:11:23;6.27;;;5.50;;